Time;durP1;ratioP1;P1;durP2;ratioP2;P2;SDS_P1;SDS_P2;PMS_P1;PMS_P2;Temp;Humidity;BMP_temperature;BMP_pressure;BME280_temperature;BME280_humidity;BME280_pressure;Samples;Min_cycle;Max_cycle;Signal;HPM_P1;HPM_P2
2023/06/01 08:06:55;;;;;;;6.63;1.98;;;;;;;23.07;37.44;99978.03;1087380;54;20028;-86
2023/06/01 08:07:57;;;;;;;6.18;2.58;;;;;;;23.00;37.78;99978.09;1087254;46;21075;-86
2023/06/01 08:09:01;;;;;;;5.38;2.38;;;;;;;22.82;37.73;99981.69;1087180;47;20034;-84
2023/06/01 08:10:05;;;;;;;4.85;2.30;;;;;;;22.84;37.78;99978.72;1087077;54;20026;-84
2023/06/01 08:11:07;;;;;;;7.25;2.88;;;;;;;23.02;37.56;99975.16;1087176;46;20024;-84
2023/06/01 08:12:11;;;;;;;4.15;2.40;;;;;;;23.26;36.97;99967.97;1087144;47;20026;-84
2023/06/01 08:13:13;;;;;;;4.65;2.10;;;;;;;23.35;36.80;99972.03;1087143;47;20460;-85
2023/06/01 08:14:16;;;;;;;3.67;1.75;;;;;;;23.65;36.43;99967.63;1087201;54;20034;-85
2023/06/01 08:15:20;;;;;;;3.97;1.80;;;;;;;23.90;36.40;99955.69;1087039;54;20051;-83
2023/06/01 08:16:25;;;;;;;5.47;2.20;;;;;;;23.91;36.44;99966.38;1087320;54;20105;-85
2023/06/01 08:17:27;;;;;;;7.78;2.10;;;;;;;23.88;36.22;99964.09;1087204;47;20023;-87
2023/06/01 08:18:31;;;;;;;6.97;2.13;;;;;;;24.09;35.89;99956.44;1087046;47;20042;-85
2023/06/01 08:19:33;;;;;;;5.00;2.30;;;;;;;23.91;35.82;99965.53;1087031;47;20083;-86
2023/06/01 08:20:37;;;;;;;5.18;2.60;;;;;;;24.00;35.50;99958.69;1087158;54;20034;-87
2023/06/01 08:21:41;;;;;;;5.00;2.45;;;;;;;24.06;35.78;99957.75;1087228;46;21071;-85
2023/06/01 08:22:47;;;;;;;6.82;2.20;;;;;;;24.28;35.02;99959.88;1087179;54;20041;-87
2023/06/01 08:23:48;;;;;;;6.13;2.15;;;;;;;24.57;34.97;99952.63;1087259;47;20031;-85
2023/06/01 08:24:53;;;;;;;6.07;2.25;;;;;;;24.77;34.87;99957.72;1088035;39;20975;-86
2023/06/01 08:25:54;;;;;;;6.18;2.42;;;;;;;24.88;34.56;99952.47;1087159;47;20023;-85
2023/06/01 08:26:59;;;;;;;5.25;2.35;;;;;;;24.96;34.30;99954.00;1087181;47;20053;-84
2023/06/01 08:28:00;;;;;;;7.07;2.97;;;;;;;24.71;34.66;99953.22;1087105;47;20119;-85
2023/06/01 08:29:04;;;;;;;4.55;2.35;;;;;;;25.02;34.33;99951.13;1087070;54;20041;-85
2023/06/01 08:30:06;;;;;;;5.43;2.47;;;;;;;25.20;34.20;99949.28;1087028;46;20022;-86
2023/06/01 08:31:11;;;;;;;7.45;2.55;;;;;;;25.10;33.93;99955.38;1087078;47;21161;-85
2023/06/01 08:32:12;;;;;;;7.50;2.20;;;;;;;25.17;33.92;99955.22;1087065;46;20026;-82
2023/06/01 08:33:16;;;;;;;6.15;2.30;;;;;;;25.08;33.91;99952.88;1086869;47;21008;-83
2023/06/01 08:34:17;;;;;;;4.30;2.03;;;;;;;25.35;33.70;99946.00;1088029;39;20809;-85
2023/06/01 08:35:21;;;;;;;5.00;2.28;;;;;;;25.35;33.78;99949.56;1087403;39;20883;-84
2023/06/01 08:36:25;;;;;;;8.63;2.13;;;;;;;25.53;33.34;99953.19;1087006;47;20022;-83
2023/06/01 08:37:26;;;;;;;6.32;2.72;;;;;;;25.64;33.49;99949.53;1087971;39;20916;-83
2023/06/01 08:38:32;;;;;;;5.35;2.58;;;;;;;25.85;33.03;99949.91;1086916;47;20034;-84
2023/06/01 08:39:33;;;;;;;7.50;2.50;;;;;;;25.95;32.64;99946.47;1086988;54;20139;-85
2023/06/01 08:40:39;;;;;;;6.22;2.25;;;;;;;26.08;32.48;99950.78;1086973;54;20071;-82
2023/06/01 08:41:53;;;;;;;4.95;2.60;;;;;;;26.16;32.69;99944.94;1088336;39;20766;-85
2023/06/01 08:43:01;;;;;;;5.30;2.05;;;;;;;26.34;32.19;99943.81;1086990;47;20027;-82
2023/06/01 08:44:06;;;;;;;5.63;2.38;;;;;;;26.44;32.25;99940.41;1086985;46;20022;-84
2023/06/01 08:45:07;;;;;;;4.53;2.22;;;;;;;26.51;32.04;99946.53;1086957;54;20030;-83
2023/06/01 08:46:12;;;;;;;5.10;2.53;;;;;;;26.53;32.07;99944.38;1086970;46;20120;-85
2023/06/01 08:47:13;;;;;;;7.05;2.75;;;;;;;26.42;31.79;99942.56;1087041;46;20022;-85
2023/06/01 08:48:20;;;;;;;5.80;2.35;;;;;;;26.59;31.73;99943.34;1087371;39;20916;-84
2023/06/01 08:49:24;;;;;;;6.97;2.65;;;;;;;26.74;31.74;99939.13;1086920;47;20026;-84
2023/06/01 08:50:29;;;;;;;8.45;2.67;;;;;;;26.78;31.51;99941.13;1086898;47;21021;-84
2023/06/01 08:51:33;;;;;;;6.13;2.45;;;;;;;26.78;31.44;99940.31;1086970;46;20061;-85
2023/06/01 08:52:39;;;;;;;5.63;2.60;;;;;;;26.78;31.43;99938.41;1086947;47;20027;-84
2023/06/01 08:53:44;;;;;;;6.57;2.25;;;;;;;27.00;31.48;99936.75;1087123;54;20034;-84
2023/06/01 08:54:48;;;;;;;4.68;2.08;;;;;;;27.12;31.25;99934.66;1086984;54;20061;-83
2023/06/01 08:55:51;;;;;;;4.80;2.42;;;;;;;27.12;31.33;99928.38;1087034;54;20030;-84
2023/06/01 08:56:56;;;;;;;14.25;2.88;;;;;;;27.13;31.08;99938.25;1086970;54;20030;-85
2023/06/01 08:58:00;;;;;;;8.25;2.58;;;;;;;27.13;30.95;99939.06;1087393;54;20183;-84
2023/06/01 08:59:02;;;;;;;5.57;2.60;;;;;;;26.71;31.28;99929.50;1088106;39;20771;-84
2023/06/01 09:00:16;;;;;;;5.57;2.70;;;;;;;26.83;31.22;99932.13;1087285;54;20034;-86
2023/06/01 09:01:21;;;;;;;7.40;2.30;;;;;;;27.02;31.26;99942.78;1087178;47;20029;-83
2023/06/01 09:02:25;;;;;;;8.43;2.83;;;;;;;26.99;30.89;99937.81;1087430;46;20026;-84
2023/06/01 09:03:26;;;;;;;9.27;2.55;;;;;;;27.06;31.15;99939.25;1087244;54;20050;-84
2023/06/01 09:04:30;;;;;;;4.60;2.25;;;;;;;26.92;30.85;99929.78;1087169;54;20060;-84
2023/06/01 09:05:31;;;;;;;5.47;2.80;;;;;;;27.22;30.11;99934.78;1087242;54;20026;-81
2023/06/01 09:06:36;;;;;;;6.38;2.60;;;;;;;27.33;30.46;99930.25;1087042;47;20036;-83
2023/06/01 09:07:37;;;;;;;5.32;2.67;;;;;;;27.38;30.15;99921.22;1086569;54;21127;-84
2023/06/01 09:08:41;;;;;;;5.28;2.85;;;;;;;27.51;30.20;99926.31;1086429;47;20046;-82
2023/06/01 09:09:45;;;;;;;8.63;3.17;;;;;;;26.99;30.27;99935.09;1087310;46;20067;-83
2023/06/01 09:10:49;;;;;;;6.50;2.75;;;;;;;26.81;30.70;99926.09;1086980;47;20034;-84
2023/06/01 09:12:18;;;;;;;9.48;3.03;;;;;;;27.02;30.50;99931.81;1087129;47;20023;-83
2023/06/01 09:13:34;;;;;;;7.03;2.63;;;;;;;27.08;30.34;99933.53;1087035;47;20033;-84
2023/06/01 09:14:35;;;;;;;6.00;2.60;;;;;;;26.99;30.67;99935.09;1087196;54;20026;-83
2023/06/01 09:15:53;;;;;;;5.25;2.67;;;;;;;27.03;30.10;99925.25;1087184;54;20098;-85
2023/06/01 09:16:55;;;;;;;6.20;3.15;;;;;;;26.97;30.43;99931.75;1087008;47;20117;-84
2023/06/01 09:18:10;;;;;;;5.63;2.70;;;;;;;27.19;30.08;99918.84;1086948;47;20057;-83
2023/06/01 09:19:11;;;;;;;5.65;2.67;;;;;;;27.42;30.13;99916.84;1087223;54;20030;-83
2023/06/01 09:20:16;;;;;;;4.78;2.50;;;;;;;27.54;29.81;99920.31;1086943;47;20037;-82
2023/06/01 09:21:17;;;;;;;5.78;2.97;;;;;;;27.80;29.71;99919.69;1087050;47;20034;-84
2023/06/01 09:22:21;;;;;;;9.93;2.78;;;;;;;27.63;29.57;99917.91;1087133;54;20031;-81
2023/06/01 09:23:28;;;;;;;5.85;2.63;;;;;;;27.52;29.61;99916.19;1087035;47;20022;-83
2023/06/01 09:24:30;;;;;;;9.48;3.47;;;;;;;27.63;29.72;99917.06;1087227;47;20027;-83
2023/06/01 09:25:36;;;;;;;5.18;2.60;;;;;;;27.86;29.15;99919.47;1087203;47;20031;-83
2023/06/01 09:26:37;;;;;;;5.32;2.72;;;;;;;27.91;29.15;99912.34;1086907;46;20030;-84
2023/06/01 09:27:49;;;;;;;7.80;3.13;;;;;;;27.93;28.98;99910.19;1087065;54;20041;-83
2023/06/01 09:28:54;;;;;;;7.00;3.03;;;;;;;27.69;29.07;99916.03;1087001;47;20420;-83
2023/06/01 09:29:59;;;;;;;7.68;2.83;;;;;;;27.71;28.85;99916.59;1087040;46;20484;-83
2023/06/01 09:31:00;;;;;;;7.30;3.13;;;;;;;27.39;29.29;99907.25;1089772;39;20743;-83
2023/06/01 09:32:04;;;;;;;6.28;2.95;;;;;;;27.81;28.99;99908.44;1086994;54;20073;-82
2023/06/01 09:33:12;;;;;;;6.40;2.75;;;;;;;27.69;28.33;99910.53;1087112;54;20030;-82
2023/06/01 09:34:18;;;;;;;8.55;3.20;;;;;;;27.84;28.58;99904.34;1087118;47;20026;-83
2023/06/01 09:35:37;;;;;;;5.53;3.08;;;;;;;28.18;27.96;99901.31;1086993;54;20030;-83
2023/06/01 09:36:41;;;;;;;6.43;2.50;;;;;;;28.21;28.04;99900.75;1087142;47;20030;-84
2023/06/01 09:37:57;;;;;;;6.15;3.03;;;;;;;28.31;27.69;99903.56;1087260;47;20027;-85
2023/06/01 09:39:05;;;;;;;6.70;2.95;;;;;;;28.42;28.00;99909.13;1087212;54;20030;-83
2023/06/01 09:40:20;;;;;;;4.70;2.58;;;;;;;28.45;27.88;99912.16;1087183;47;20045;-84
2023/06/01 09:41:25;;;;;;;6.00;2.83;;;;;;;28.58;27.87;99910.03;1087129;54;20042;-82
2023/06/01 09:42:35;;;;;;;6.18;2.95;;;;;;;28.60;27.18;99903.16;1086998;46;20118;-84
2023/06/01 09:43:36;;;;;;;4.90;2.60;;;;;;;28.67;27.64;99902.91;1086942;54;20102;-83
2023/06/01 09:44:42;;;;;;;5.97;2.80;;;;;;;28.83;27.64;99894.72;1087098;54;20041;-84
2023/06/01 09:45:43;;;;;;;9.75;2.85;;;;;;;28.82;27.51;99906.84;1087144;54;20038;-84
2023/06/01 09:46:50;;;;;;;9.65;2.88;;;;;;;28.39;28.16;99906.91;1087036;54;20120;-83
2023/06/01 09:47:55;;;;;;;8.98;2.70;;;;;;;28.14;28.64;99911.16;1087099;54;20849;-83
2023/06/01 09:49:06;;;;;;;8.32;3.25;;;;;;;28.17;28.30;99908.72;1086975;47;20027;-83
2023/06/01 09:50:10;;;;;;;7.25;2.83;;;;;;;28.37;28.10;99904.41;1086995;47;20056;-84
2023/06/01 09:51:22;;;;;;;6.30;2.63;;;;;;;28.69;27.91;99895.22;1087151;47;20052;-84
2023/06/01 09:52:26;;;;;;;5.53;2.80;;;;;;;28.86;28.03;99896.97;1086994;47;20027;-83
2023/06/01 09:53:27;;;;;;;4.13;2.17;;;;;;;28.84;27.91;99896.38;1087008;47;20022;-83
2023/06/01 09:54:32;;;;;;;6.15;2.58;;;;;;;28.98;27.43;99892.03;1086905;46;20438;-85
2023/06/01 09:55:33;;;;;;;4.72;2.63;;;;;;;29.10;27.30;99889.84;1086941;54;20026;-84
2023/06/01 09:56:48;;;;;;;5.18;2.63;;;;;;;29.23;27.01;99887.69;1087346;54;20902;-85
2023/06/01 09:57:52;;;;;;;4.78;2.50;;;;;;;29.33;27.28;99893.22;1087343;46;20022;-82
2023/06/01 09:59:01;;;;;;;5.97;2.50;;;;;;;29.18;27.79;99890.44;1087193;54;20026;-83
2023/06/01 10:00:06;;;;;;;3.88;1.98;;;;;;;29.40;27.38;99888.28;1087054;54;20030;-85
2023/06/01 10:01:08;;;;;;;5.20;2.70;;;;;;;29.20;27.58;99882.72;1087024;54;20109;-85
2023/06/01 10:02:16;;;;;;;5.60;3.15;;;;;;;28.51;28.24;99890.22;1087249;47;20030;-84
2023/06/01 10:03:20;;;;;;;5.60;3.10;;;;;;;28.59;28.37;99887.75;1086902;54;20403;-83
2023/06/01 10:04:26;;;;;;;5.53;2.90;;;;;;;28.83;28.07;99891.97;1087380;54;20065;-84
2023/06/01 10:05:27;;;;;;;5.78;2.72;;;;;;;28.87;27.99;99887.63;1087211;47;20022;-83
2023/06/01 10:06:33;;;;;;;6.50;2.78;;;;;;;29.04;28.03;99890.13;1087140;47;20031;-87
2023/06/01 10:07:38;;;;;;;11.38;3.58;;;;;;;28.78;27.96;99888.13;1087140;47;20027;-83
2023/06/01 10:08:40;;;;;;;9.10;3.28;;;;;;;28.21;28.91;99894.44;1091378;39;20870;-84
2023/06/01 10:09:47;;;;;;;6.47;3.45;;;;;;;28.12;29.08;99892.22;1087094;47;20030;-85
2023/06/01 10:10:49;;;;;;;7.18;2.72;;;;;;;28.56;28.32;99892.97;1087395;46;20027;-86
2023/06/01 10:11:57;;;;;;;5.65;2.72;;;;;;;28.63;28.02;99888.03;1087349;54;20035;-83
2023/06/01 10:12:58;;;;;;;5.88;2.90;;;;;;;28.41;27.91;99893.72;1087050;47;20022;-83
2023/06/01 10:14:02;;;;;;;4.10;2.53;;;;;;;28.66;27.62;99882.00;1087278;47;20027;-84
2023/06/01 10:15:07;;;;;;;5.35;2.83;;;;;;;28.66;27.38;99878.44;1087265;46;20023;-83
2023/06/01 10:16:12;;;;;;;6.60;3.25;;;;;;;28.71;26.57;99889.47;1087001;47;20522;-83
2023/06/01 10:17:17;;;;;;;11.63;3.20;;;;;;;28.65;26.49;99880.34;1086995;47;20152;-83
2023/06/01 10:18:21;;;;;;;5.95;2.63;;;;;;;28.72;26.47;99880.94;1087040;47;20023;-85
2023/06/01 10:19:22;;;;;;;4.90;2.75;;;;;;;29.08;26.04;99877.47;1087079;54;20367;-83
2023/06/01 10:20:26;;;;;;;6.18;2.78;;;;;;;29.39;25.52;99875.59;1086855;54;20045;-83
2023/06/01 10:21:29;;;;;;;4.63;2.45;;;;;;;29.36;25.49;99869.81;1086802;47;20023;-83
2023/06/01 10:22:33;;;;;;;4.82;2.40;;;;;;;29.41;25.30;99878.91;1087017;47;20061;-83
2023/06/01 10:23:35;;;;;;;5.97;2.67;;;;;;;29.49;25.32;99873.94;1087061;47;20456;-84
2023/06/01 10:24:41;;;;;;;8.00;2.70;;;;;;;29.61;24.78;99870.94;1086990;47;20037;-84
2023/06/01 10:25:50;;;;;;;4.93;2.90;;;;;;;29.72;24.90;99869.81;1087214;54;20038;-85
2023/06/01 10:27:07;;;;;;;5.00;2.65;;;;;;;29.77;24.33;99874.50;1087029;54;20035;-84
2023/06/01 10:28:13;;;;;;;6.28;2.72;;;;;;;30.04;23.92;99864.00;1087105;54;20917;-84
2023/06/01 10:29:17;;;;;;;6.45;2.40;;;;;;;30.15;23.15;99866.72;1087156;54;20026;-84
2023/06/01 10:30:21;;;;;;;4.80;2.47;;;;;;;29.97;23.48;99871.72;1087109;47;20026;-85
2023/06/01 10:31:35;;;;;;;4.72;2.33;;;;;;;29.87;22.91;99863.47;1086948;47;20034;-85
2023/06/01 10:32:45;;;;;;;4.25;2.30;;;;;;;30.11;22.46;99865.66;1087289;47;20026;-83
2023/06/01 10:33:55;;;;;;;5.32;1.95;;;;;;;30.14;22.80;99863.16;1087227;54;20042;-84
2023/06/01 10:34:59;;;;;;;4.30;2.20;;;;;;;30.10;22.95;99855.72;1087253;54;20022;-85
2023/06/01 10:36:01;;;;;;;7.65;2.42;;;;;;;29.95;23.00;99865.66;1086985;47;20034;-84
2023/06/01 10:37:18;;;;;;;6.28;2.70;;;;;;;29.55;23.19;99854.41;1087144;47;20023;-85
2023/06/01 10:38:23;;;;;;;6.00;2.42;;;;;;;30.00;23.16;99845.56;1087409;54;20060;-85
2023/06/01 10:39:27;;;;;;;6.75;2.50;;;;;;;30.14;23.18;99848.53;1087145;47;20042;-83
2023/06/01 10:40:31;;;;;;;5.82;2.60;;;;;;;29.84;23.34;99847.50;1087064;54;20041;-85
2023/06/01 10:41:32;;;;;;;5.47;2.50;;;;;;;30.04;22.94;99847.47;1087193;47;20112;-85
2023/06/01 10:42:44;;;;;;;6.20;2.70;;;;;;;29.94;22.44;99857.69;1087290;47;20037;-83
2023/06/01 10:43:45;;;;;;;7.05;2.33;;;;;;;30.03;22.80;99845.84;1087234;54;20034;-81
2023/06/01 10:44:50;;;;;;;6.57;2.90;;;;;;;29.58;22.97;99844.75;1087207;47;20053;-83
2023/06/01 10:45:54;;;;;;;4.75;2.40;;;;;;;29.10;23.43;99856.03;1087249;54;20031;-82
2023/06/01 10:46:55;;;;;;;4.95;2.30;;;;;;;29.50;23.30;99850.84;1087439;46;20026;-85
2023/06/01 10:47:58;;;;;;;3.80;1.92;;;;;;;29.91;23.05;99847.19;1087552;39;20287;-84
2023/06/01 10:49:00;;;;;;;4.80;2.72;;;;;;;29.78;22.71;99845.84;1087381;54;20854;-83
2023/06/01 10:50:10;;;;;;;4.30;1.98;;;;;;;29.94;22.75;99846.69;1087259;47;20030;-84
2023/06/01 10:51:23;;;;;;;6.97;1.98;;;;;;;29.85;23.52;99854.66;1087419;47;20061;-85
2023/06/01 10:52:25;;;;;;;4.15;2.25;;;;;;;29.39;23.72;99848.06;1087374;47;20027;-84
2023/06/01 10:53:31;;;;;;;5.75;2.05;;;;;;;28.95;24.05;99848.56;1087414;46;20042;-84
2023/06/01 10:54:35;;;;;;;5.72;2.38;;;;;;;28.69;24.36;99848.47;1087331;46;20022;-84
2023/06/01 10:55:41;;;;;;;6.65;2.28;;;;;;;28.78;24.43;99841.38;1087356;54;20078;-84
2023/06/01 10:56:45;;;;;;;4.20;1.95;;;;;;;29.21;24.32;99840.34;1087279;47;20022;-84
2023/06/01 10:57:52;;;;;;;3.60;1.80;;;;;;;29.58;23.59;99844.75;1087492;47;20352;-82
2023/06/01 10:59:11;;;;;;;3.90;1.98;;;;;;;29.62;23.09;99840.38;1087438;47;20082;-84
2023/06/01 11:00:20;;;;;;;3.38;1.85;;;;;;;29.84;22.83;99842.81;1087545;47;20026;-83
2023/06/01 11:01:21;;;;;;;6.40;2.37;;;;;;;29.59;23.01;99840.91;1087488;46;20030;-84
2023/06/01 11:02:25;;;;;;;3.88;1.85;;;;;;;29.62;23.17;99831.25;1087187;47;20030;-83
2023/06/01 11:03:49;;;;;;;6.60;1.90;;;;;;;29.26;23.04;99843.09;1087291;54;20046;-83
2023/06/01 11:04:50;;;;;;;3.95;1.90;;;;;;;29.24;23.78;99837.03;1087384;46;20026;-82
2023/06/01 11:05:54;;;;;;;4.30;1.90;;;;;;;28.65;24.24;99841.84;1087140;46;20038;-83
2023/06/01 11:06:55;;;;;;;4.38;1.98;;;;;;;28.51;24.45;99837.97;1087158;47;20037;-83
2023/06/01 11:08:00;;;;;;;4.13;1.73;;;;;;;28.91;23.99;99836.44;1087148;47;20038;-82
2023/06/01 11:09:05;;;;;;;3.42;1.45;;;;;;;29.16;23.46;99837.59;1087071;54;20030;-84
2023/06/01 11:10:08;;;;;;;4.35;1.80;;;;;;;29.00;24.12;99829.31;1087370;46;20022;-82
2023/06/01 11:11:11;;;;;;;4.22;1.60;;;;;;;28.87;24.02;99827.91;1087210;46;20035;-82
2023/06/01 11:12:15;;;;;;;6.00;2.05;;;;;;;28.42;24.03;99838.50;1087268;54;20035;-83
2023/06/01 11:13:21;;;;;;;5.25;1.90;;;;;;;28.29;24.12;99830.75;1087143;47;20026;-83
2023/06/01 11:14:26;;;;;;;3.88;1.75;;;;;;;28.41;24.42;99836.84;1087445;54;20095;-82
2023/06/01 11:15:27;;;;;;;6.35;2.38;;;;;;;28.08;24.49;99838.06;1087242;54;20053;-83
2023/06/01 11:16:32;;;;;;;5.32;1.92;;;;;;;28.08;24.69;99836.13;1087114;47;21044;-82
2023/06/01 11:17:35;;;;;;;4.25;1.83;;;;;;;28.28;24.95;99835.41;1087140;54;20850;-84
2023/06/01 11:18:44;;;;;;;5.20;1.80;;;;;;;28.42;24.48;99832.16;1087184;54;20063;-84
2023/06/01 11:19:48;;;;;;;3.65;1.75;;;;;;;28.54;24.64;99831.91;1087507;46;20129;-83
2023/06/01 11:20:50;;;;;;;3.53;1.70;;;;;;;28.56;24.59;99829.72;1087347;54;20031;-85
2023/06/01 11:22:00;;;;;;;3.85;1.70;;;;;;;28.54;24.93;99826.41;1087264;47;20027;-82
2023/06/01 11:23:02;;;;;;;6.55;2.15;;;;;;;28.18;25.06;99832.63;1087092;47;20034;-83
2023/06/01 11:24:11;;;;;;;4.22;1.70;;;;;;;28.33;24.84;99829.13;1087240;54;20035;-83
2023/06/01 11:25:20;;;;;;;3.75;1.80;;;;;;;28.20;25.17;99830.41;1087244;54;20031;-83
2023/06/01 11:26:24;;;;;;;4.18;1.80;;;;;;;28.15;25.38;99825.72;1087503;54;20169;-83
2023/06/01 11:27:29;;;;;;;4.95;1.85;;;;;;;28.29;25.26;99830.75;1087486;54;20034;-84
2023/06/01 11:28:33;;;;;;;3.63;1.60;;;;;;;28.27;25.08;99832.91;1087394;54;20027;-83
2023/06/01 11:29:37;;;;;;;4.50;1.80;;;;;;;28.16;25.52;99832.06;1087323;54;20090;-83
2023/06/01 11:30:38;;;;;;;3.88;1.90;;;;;;;27.91;25.82;99827.22;1087211;54;20038;-85
2023/06/01 11:31:45;;;;;;;4.75;2.00;;;;;;;28.06;25.63;99830.03;1087375;54;20030;-85
2023/06/01 11:32:48;;;;;;;5.00;2.35;;;;;;;27.93;26.09;99833.28;1087205;47;20052;-82
2023/06/01 11:33:57;;;;;;;4.82;2.30;;;;;;;27.63;26.11;99834.72;1087141;47;20084;-84
2023/06/01 11:35:00;;;;;;;6.15;2.22;;;;;;;27.39;26.31;99824.09;1087258;54;20060;-85
2023/06/01 11:36:05;;;;;;;4.10;1.95;;;;;;;27.44;26.43;99829.66;1087309;47;20023;-84
2023/06/01 11:37:14;;;;;;;5.40;2.03;;;;;;;27.67;25.76;99830.38;1087321;46;20026;-82
2023/06/01 11:38:16;;;;;;;5.18;1.98;;;;;;;27.73;25.84;99823.81;1087387;54;20034;-83
2023/06/01 11:39:24;;;;;;;5.93;2.30;;;;;;;27.27;25.69;99827.00;1087153;47;20030;-84
2023/06/01 11:40:25;;;;;;;4.82;2.40;;;;;;;27.24;25.85;99828.34;1087174;54;21320;-82
2023/06/01 11:41:29;;;;;;;4.65;1.77;;;;;;;27.27;25.70;99831.66;1087297;54;20055;-82
2023/06/01 11:42:37;;;;;;;3.78;1.70;;;;;;;27.47;25.06;99814.56;1087362;46;20023;-84
2023/06/01 11:43:41;;;;;;;5.55;2.15;;;;;;;27.38;25.35;99822.44;1087126;46;20022;-83
2023/06/01 11:44:47;;;;;;;5.60;1.85;;;;;;;27.55;25.42;99827.78;1087326;46;20026;-85
2023/06/01 11:45:59;;;;;;;5.32;2.45;;;;;;;26.97;26.10;99822.88;1087287;54;20065;-83
2023/06/01 11:47:05;;;;;;;5.03;2.47;;;;;;;27.23;25.92;99821.22;1087183;47;20034;-82
2023/06/01 11:48:12;;;;;;;4.65;2.33;;;;;;;27.28;25.92;99827.84;1087148;46;20169;-83
2023/06/01 11:49:16;;;;;;;5.63;2.72;;;;;;;27.06;25.86;99820.50;1087130;54;20035;-82
2023/06/01 11:50:24;;;;;;;5.32;2.17;;;;;;;27.28;25.42;99814.94;1087162;47;20022;-83
2023/06/01 11:51:25;;;;;;;5.32;2.20;;;;;;;27.31;25.61;99819.06;1087423;54;20030;-85
2023/06/01 11:52:29;;;;;;;6.53;2.20;;;;;;;27.28;25.76;99814.13;1087197;46;20031;-83
2023/06/01 11:53:31;;;;;;;4.93;2.10;;;;;;;27.52;25.60;99812.69;1087144;47;20022;-82
2023/06/01 11:54:36;;;;;;;5.45;1.80;;;;;;;27.65;25.10;99811.41;1086794;54;20035;-83
2023/06/01 11:55:51;;;;;;;4.78;1.80;;;;;;;27.73;24.85;99809.25;1087101;54;20043;-82
2023/06/01 11:56:52;;;;;;;5.00;1.52;;;;;;;27.73;25.00;99810.09;1089731;39;20773;-82
2023/06/01 11:57:58;;;;;;;3.70;1.65;;;;;;;27.82;24.90;99805.75;1087474;47;20034;-84
2023/06/01 11:59:08;;;;;;;4.70;1.70;;;;;;;27.78;24.74;99801.06;1087586;54;20043;-83
2023/06/01 12:00:12;;;;;;;;;;;;;;;27.30;25.03;99798.22;1087639;47;20111;-82
2023/06/01 12:01:16;;;;;;;5.53;2.00;;;;;;;27.38;24.96;99811.47;1087396;47;19938;-84
2023/06/01 12:02:21;;;;;;;5.45;2.67;;;;;;;27.24;24.96;99809.16;1087132;47;20026;-82
2023/06/01 12:03:26;;;;;;;4.38;1.85;;;;;;;27.03;24.96;99810.03;1087213;47;20030;-85
2023/06/01 12:04:27;;;;;;;4.70;2.20;;;;;;;27.10;24.77;99802.47;1087182;47;20029;-84
2023/06/01 12:05:41;;;;;;;3.40;1.60;;;;;;;27.36;24.47;99802.66;1087086;47;20053;-84
2023/06/01 12:06:44;;;;;;;3.95;1.40;;;;;;;27.52;24.72;99798.16;1087532;46;20026;-83
2023/06/01 12:07:50;;;;;;;5.07;1.80;;;;;;;27.53;24.41;99797.06;1087344;54;20038;-83
2023/06/01 12:08:54;;;;;;;4.32;1.60;;;;;;;27.62;24.28;99790.00;1087366;54;20057;-84
2023/06/01 12:10:00;;;;;;;7.75;1.67;;;;;;;27.56;24.35;99791.03;1086993;54;20041;-83
2023/06/01 12:11:07;;;;;;;5.13;2.42;;;;;;;27.68;24.29;99796.31;1086045;47;20026;-85
2023/06/01 12:12:12;;;;;;;5.10;1.70;;;;;;;27.84;24.20;99795.34;1087302;47;20056;-85
2023/06/01 12:13:16;;;;;;;7.13;2.05;;;;;;;27.83;24.42;99785.44;1087542;54;20033;-83
2023/06/01 12:14:23;;;;;;;4.85;1.75;;;;;;;27.70;24.18;99791.38;1088016;54;20030;-84
2023/06/01 12:15:24;;;;;;;5.07;1.52;;;;;;;27.69;24.02;99789.72;1087718;54;20019;-82
2023/06/01 12:16:49;;;;;;;4.20;1.80;;;;;;;27.58;24.31;99788.03;1087293;46;20156;-84
2023/06/01 12:17:51;;;;;;;5.70;1.95;;;;;;;27.52;23.91;99790.72;1087320;54;20030;-84
2023/06/01 12:18:55;;;;;;;4.03;1.88;;;;;;;27.43;23.96;99784.06;1087146;46;20029;-82
2023/06/01 12:19:56;;;;;;;6.88;3.15;;;;;;;27.17;24.05;99791.25;1087360;54;20023;-83
2023/06/01 12:20:59;;;;;;;4.70;2.05;;;;;;;27.34;24.01;99794.69;1087265;47;20031;-84
2023/06/01 12:22:03;;;;;;;6.47;2.25;;;;;;;27.54;23.94;99785.81;1087404;54;20050;-82
2023/06/01 12:23:14;;;;;;;4.60;1.92;;;;;;;27.66;23.15;99784.78;1087581;54;20027;-82
2023/06/01 12:24:18;;;;;;;3.92;1.70;;;;;;;27.75;23.27;99777.72;1089109;39;20194;-83
2023/06/01 12:25:19;;;;;;;4.28;1.50;;;;;;;27.82;23.37;99772.00;1087417;54;20015;-82
2023/06/01 12:26:22;;;;;;;4.20;1.50;;;;;;;27.83;23.34;99774.44;1087282;47;20027;-81
2023/06/01 12:27:23;;;;;;;7.05;2.03;;;;;;;27.49;23.71;99776.72;1087193;54;20030;-82
2023/06/01 12:28:29;;;;;;;5.10;1.83;;;;;;;27.29;24.08;99774.63;1087080;47;20033;-81
2023/06/01 12:29:43;;;;;;;4.63;2.17;;;;;;;27.23;24.14;99771.81;1087260;54;20038;-82
2023/06/01 12:30:45;;;;;;;4.47;2.00;;;;;;;27.30;23.96;99776.28;1087178;47;20026;-82
2023/06/01 12:31:56;;;;;;;3.80;1.73;;;;;;;27.29;24.13;99774.63;1087090;54;20090;-83
2023/06/01 12:32:58;;;;;;;5.15;1.75;;;;;;;27.39;24.13;99767.28;1087115;47;20033;-82
2023/06/01 12:34:01;;;;;;;4.28;1.60;;;;;;;27.37;24.34;99768.66;1087060;54;20034;-83
2023/06/01 12:35:06;;;;;;;5.38;1.88;;;;;;;27.31;24.24;99764.19;1086990;46;20057;-83
2023/06/01 12:36:08;;;;;;;5.28;2.10;;;;;;;27.33;23.86;99765.59;1087197;47;20098;-84
2023/06/01 12:37:19;;;;;;;4.18;1.90;;;;;;;27.15;24.03;99758.59;1087153;54;21178;-83
2023/06/01 12:38:22;;;;;;;5.85;1.92;;;;;;;27.44;24.10;99761.03;1087203;54;20037;-82
2023/06/01 12:39:37;;;;;;;3.88;1.80;;;;;;;27.36;23.91;99761.50;1087049;54;20027;-81
2023/06/01 12:40:38;;;;;;;7.55;1.92;;;;;;;27.41;24.09;99750.53;1087181;46;20078;-82
2023/06/01 12:42:07;;;;;;;6.03;2.13;;;;;;;27.28;24.06;99762.81;1087000;47;20082;-81
2023/06/01 12:43:20;;;;;;;7.38;2.00;;;;;;;27.12;24.00;99756.38;1087300;54;20052;-82
2023/06/01 12:44:22;;;;;;;5.40;2.05;;;;;;;27.33;23.84;99759.28;1087130;54;20026;-83
2023/06/01 12:45:36;;;;;;;4.57;1.77;;;;;;;27.13;24.10;99758.03;1089722;39;20924;-82
2023/06/01 12:46:40;;;;;;;4.57;1.90;;;;;;;27.14;24.33;99767.09;1087038;54;20026;-83
2023/06/01 12:47:42;;;;;;;5.38;2.42;;;;;;;27.02;24.37;99767.25;1087030;47;20034;-82
2023/06/01 12:48:46;;;;;;;3.92;1.65;;;;;;;27.15;23.86;99764.09;1086863;47;20057;-83
2023/06/01 12:56:27;;;;;;;6.72;2.38;;;;;;;27.48;23.86;99742.13;1087262;54;20034;-84
2023/06/01 12:57:43;;;;;;;4.53;2.00;;;;;;;27.20;23.47;99749.56;1087538;54;20102;-85
2023/06/01 12:58:44;;;;;;;6.10;2.60;;;;;;;27.21;23.70;99751.25;1087097;54;20038;-85
2023/06/01 12:59:48;;;;;;;3.50;1.60;;;;;;;27.27;23.49;99743.88;1087138;47;20056;-82
2023/06/01 13:00:52;;;;;;;3.88;1.67;;;;;;;27.44;22.82;99754.72;1087133;54;20027;-82
2023/06/01 13:04:22;;;;;;;3.63;1.60;;;;;;;27.55;22.94;99749.03;1087520;54;20027;-81
2023/06/01 13:05:25;;;;;;;5.95;2.00;;;;;;;27.41;23.39;99750.53;1086776;46;20094;-81
2023/06/01 13:06:30;;;;;;;5.30;2.28;;;;;;;27.24;23.75;99737.00;1087246;39;20850;-82
2023/06/01 13:07:33;;;;;;;4.60;1.90;;;;;;;27.23;24.04;99743.59;1087123;47;20027;-83
2023/06/01 13:08:37;;;;;;;6.68;1.85;;;;;;;27.30;24.04;99744.16;1086846;54;20034;-82
2023/06/01 13:09:41;;;;;;;5.03;1.83;;;;;;;27.33;24.08;99749.16;1087036;46;20030;-82
2023/06/01 13:10:45;;;;;;;3.97;2.03;;;;;;;27.44;23.87;99743.75;1087081;54;20034;-82
2023/06/01 13:11:46;;;;;;;4.97;1.83;;;;;;;27.46;23.71;99747.88;1086870;46;20077;-80
2023/06/01 13:12:51;;;;;;;3.47;1.80;;;;;;;27.37;23.82;99743.94;1086981;47;20070;-81
2023/06/01 13:13:55;;;;;;;4.40;1.98;;;;;;;27.51;23.60;99745.16;1086647;47;20047;-82
2023/06/01 13:15:02;;;;;;;3.55;1.58;;;;;;;27.54;23.56;99730.91;1086773;47;20049;-81
2023/06/01 13:16:10;;;;;;;3.38;1.77;;;;;;;27.69;23.56;99734.81;1087133;54;20035;-83
2023/06/01 13:17:11;;;;;;;3.97;1.80;;;;;;;27.64;23.46;99732.06;1086836;54;20073;-83
2023/06/01 13:18:15;;;;;;;7.10;1.98;;;;;;;27.52;23.49;99735.84;1086986;54;20038;-82
2023/06/01 13:19:36;;;;;;;5.55;1.98;;;;;;;27.48;23.63;99736.63;1086961;47;20112;-83
2023/06/01 13:20:56;;;;;;;4.65;1.92;;;;;;;27.35;23.31;99737.88;1086929;47;20022;-82
2023/06/01 13:22:04;;;;;;;4.65;1.80;;;;;;;27.41;23.83;99731.34;1086922;46;20358;-80
2023/06/01 13:23:18;;;;;;;3.97;1.70;;;;;;;27.27;23.90;99733.72;1087726;39;20354;-81
2023/06/01 13:24:32;;;;;;;4.47;1.80;;;;;;;27.53;23.42;99734.75;1086864;47;20023;-80